createdAt,value
2022-09-20T00:00:43.030Z,10.02
2022-09-20T00:03:30.307Z,10.02
2022-09-20T00:06:03.139Z,10.04
2022-09-20T00:08:32.782Z,10.04
2022-09-20T00:11:02.583Z,10.02
2022-09-20T00:13:31.570Z,9.99
2022-09-20T00:16:04.489Z,9.98
2022-09-20T00:18:33.602Z,9.98
2022-09-20T00:21:02.946Z,9.99
2022-09-20T00:23:32.254Z,10.00
2022-09-20T00:26:03.427Z,10.00
2022-09-20T00:28:33.965Z,9.99
2022-09-20T00:31:03.487Z,9.96
2022-09-20T00:33:46.930Z,9.91
2022-09-20T00:36:16.147Z,9.89
2022-09-20T00:38:45.028Z,9.91
2022-09-20T00:41:13.761Z,9.95
2022-09-20T00:43:45.903Z,9.94
2022-09-20T00:46:23.164Z,9.88
2022-09-20T00:48:55.315Z,9.87
2022-09-20T00:51:28.636Z,9.89
2022-09-20T00:54:03.356Z,9.93
2022-09-20T00:56:37.642Z,9.94
2022-09-20T00:59:16.629Z,9.94
2022-09-20T01:01:53.008Z,9.94
2022-09-20T01:04:25.179Z,9.92
2022-09-20T01:06:57.948Z,9.91
2022-09-20T01:09:27.057Z,9.94
2022-09-20T01:11:58.086Z,9.96
2022-09-20T01:14:27.217Z,9.97
2022-09-20T01:17:04.329Z,9.98
2022-09-20T01:19:40.874Z,10.01
2022-09-20T01:22:16.135Z,10.03
2022-09-20T01:24:50.962Z,10.05
2022-09-20T01:27:26.838Z,10.04
2022-09-20T01:30:05.683Z,10.02
2022-09-20T01:32:50.487Z,10.02
2022-09-20T01:35:26.043Z,10.03
2022-09-20T01:38:19.960Z,9.99
2022-09-20T01:40:59.192Z,9.94
2022-09-20T01:43:34.444Z,9.92
2022-09-20T01:46:12.202Z,9.94
2022-09-20T01:48:44.729Z,9.97
2022-09-20T01:51:57.629Z,9.96
2022-09-20T01:54:58.123Z,9.97
2022-09-20T01:58:05.200Z,9.99
2022-09-20T02:00:49.892Z,9.98
2022-09-20T02:03:51.398Z,9.98
2022-09-20T02:06:34.469Z,9.95
2022-09-20T02:09:32.772Z,9.96
2022-09-20T02:12:33.506Z,9.99
2022-09-20T02:15:16.351Z,10.00
2022-09-20T02:17:55.446Z,10.02
2022-09-20T02:20:39.110Z,10.03
2022-09-20T02:23:21.431Z,9.99
2022-09-20T02:26:15.261Z,9.99
2022-09-20T02:29:00.445Z,9.98
2022-09-20T02:31:43.917Z,9.99
2022-09-20T02:34:39.419Z,9.99
2022-09-20T02:37:27.079Z,9.96
2022-09-20T02:40:14.139Z,9.95
2022-09-20T02:42:48.191Z,9.95
2022-09-20T02:45:30.640Z,9.97
2022-09-20T02:48:04.736Z,9.94
2022-09-20T02:50:42.764Z,9.92
2022-09-20T02:53:27.737Z,9.93
2022-09-20T02:56:05.376Z,9.91
2022-09-20T02:58:45.283Z,9.90
2022-09-20T03:01:31.495Z,9.93
2022-09-20T03:04:23.273Z,9.92
2022-09-20T03:07:01.851Z,9.91
2022-09-20T03:09:38.242Z,9.88
2022-09-20T03:12:22.851Z,9.84
2022-09-20T03:15:04.753Z,9.85
2022-09-20T03:17:44.669Z,9.86
2022-09-20T03:20:29.888Z,9.87
2022-09-20T03:23:10.410Z,9.85
2022-09-20T03:25:47.732Z,9.85
2022-09-20T03:28:50.354Z,9.85
2022-09-20T03:31:34.058Z,9.86
2022-09-20T03:34:16.207Z,9.83
2022-09-20T03:37:08.334Z,9.85
2022-09-20T03:40:18.657Z,9.87
2022-09-20T03:42:53.004Z,9.91
2022-09-20T03:45:38.405Z,9.93
2022-09-20T03:48:44.147Z,9.95
2022-09-20T03:51:23.242Z,9.95
2022-09-20T03:54:16.638Z,9.97
2022-09-20T03:57:23.354Z,10.00
2022-09-20T04:00:16.163Z,10.02
2022-09-20T04:03:06.186Z,10.03
2022-09-20T04:05:47.170Z,10.05
2022-09-20T04:08:38.053Z,10.05
2022-09-20T04:11:16.375Z,10.03
2022-09-20T04:13:57.386Z,10.03
2022-09-20T04:16:48.364Z,10.04
2022-09-20T04:19:26.785Z,10.04
2022-09-20T04:22:08.547Z,10.03
2022-09-20T04:24:56.529Z,10.02
2022-09-20T04:27:45.683Z,9.95
2022-09-20T04:30:32.171Z,9.95
2022-09-20T04:33:14.243Z,9.93
2022-09-20T04:36:20.416Z,9.92
2022-09-20T04:39:08.635Z,9.95
2022-09-20T04:42:10.245Z,9.97
2022-09-20T04:45:08.133Z,10.00
2022-09-20T04:48:19.812Z,10.02
2022-09-20T04:51:15.751Z,10.03
2022-09-20T04:54:28.480Z,10.06
2022-09-20T04:57:25.244Z,10.05
2022-09-20T05:00:07.909Z,10.04
2022-09-20T05:03:20.936Z,10.04
2022-09-20T05:06:29.523Z,10.03
2022-09-20T05:09:44.304Z,10.04
2022-09-20T05:12:36.732Z,10.05
2022-09-20T05:15:22.588Z,10.05
2022-09-20T05:18:32.475Z,10.05
2022-09-20T05:21:23.743Z,10.08
2022-09-20T05:24:12.810Z,10.09
2022-09-20T05:26:55.209Z,10.04
2022-09-20T05:29:33.620Z,10.04
2022-09-20T05:32:14.787Z,10.02
2022-09-20T05:34:50.515Z,10.03
2022-09-20T05:37:31.763Z,10.06
2022-09-20T05:40:13.800Z,10.10
2022-09-20T05:42:50.336Z,10.12
2022-09-20T05:45:40.759Z,10.13
2022-09-20T05:48:17.550Z,10.16
2022-09-20T05:50:54.790Z,10.18
2022-09-20T05:53:53.273Z,10.22
2022-09-20T05:56:36.004Z,10.24
2022-09-20T05:59:22.039Z,10.27
2022-09-20T06:02:10.774Z,10.30
2022-09-20T06:04:49.853Z,10.31
2022-09-20T06:07:29.391Z,10.34
2022-09-20T06:10:30.576Z,10.32
2022-09-20T06:13:12.362Z,10.30
2022-09-20T06:15:51.010Z,10.31
2022-09-20T06:18:26.406Z,10.28
2022-09-20T06:21:07.551Z,10.24
2022-09-20T06:23:36.731Z,10.18
2022-09-20T06:26:10.661Z,10.19
2022-09-20T06:28:42.994Z,10.22
2022-09-20T06:31:11.856Z,10.22
2022-09-20T06:33:46.525Z,10.20
2022-09-20T06:36:38.970Z,10.18
2022-09-20T06:39:35.942Z,10.19
2022-09-20T06:42:06.202Z,10.22
2022-09-20T06:44:37.623Z,10.26
2022-09-20T06:47:07.774Z,10.26
2022-09-20T06:49:37.164Z,10.30
2022-09-20T06:52:06.735Z,10.32
2022-09-20T06:54:40.093Z,10.38
2022-09-20T06:57:10.430Z,10.45
2022-09-20T06:59:39.105Z,10.50
2022-09-20T07:02:08.172Z,10.53
2022-09-20T07:04:37.243Z,10.55
2022-09-20T07:07:09.656Z,10.55
2022-09-20T07:09:38.642Z,10.57
2022-09-20T07:12:11.493Z,10.57
2022-09-20T07:14:40.233Z,10.58
2022-09-20T07:17:14.208Z,10.57
2022-09-20T07:19:42.934Z,10.58
2022-09-20T07:22:11.730Z,10.56
2022-09-20T07:24:40.652Z,10.56
2022-09-20T07:27:12.384Z,10.60
2022-09-20T07:29:41.075Z,10.56
2022-09-20T07:32:10.040Z,10.55
2022-09-20T07:34:38.708Z,10.49
2022-09-20T07:37:07.404Z,10.49
2022-09-20T07:39:36.095Z,10.51
2022-09-20T07:42:06.805Z,10.53
2022-09-20T07:44:38.830Z,10.55
2022-09-20T07:47:09.619Z,10.57
2022-09-20T07:49:38.440Z,10.59
2022-09-20T07:52:10.479Z,10.64
2022-09-20T07:54:39.286Z,10.68
2022-09-20T07:57:08.068Z,10.64
2022-09-20T07:59:37.050Z,10.61
2022-09-20T08:02:06.075Z,10.65
2022-09-20T08:04:35.073Z,10.70
2022-09-20T08:07:03.761Z,10.69
2022-09-20T08:09:32.714Z,10.70
2022-09-20T08:14:05.302Z,10.71
2022-09-20T08:14:50.576Z,10.65
2022-09-20T08:17:19.135Z,10.62
2022-09-20T08:19:47.832Z,10.60
2022-09-20T08:22:16.547Z,10.58
2022-09-20T08:24:46.541Z,10.58
2022-09-20T08:27:15.644Z,10.60
2022-09-20T08:29:44.297Z,10.61
2022-09-20T08:32:16.013Z,10.64
2022-09-20T08:34:49.299Z,10.67
2022-09-20T08:37:18.657Z,10.74
2022-09-20T08:40:03.720Z,10.78
2022-09-20T08:42:42.130Z,10.78
2022-09-20T08:45:34.554Z,10.81
2022-09-20T08:48:14.217Z,10.85
2022-09-20T08:50:44.830Z,10.89
2022-09-20T08:53:15.022Z,10.86
2022-09-20T08:55:44.215Z,10.84
2022-09-20T08:58:13.632Z,10.86
2022-09-20T09:00:47.272Z,10.96
2022-09-20T09:03:18.135Z,11.82
2022-09-20T09:05:52.164Z,12.15
2022-09-20T09:08:24.943Z,12.19
2022-09-20T09:10:56.463Z,12.28
2022-09-20T09:13:33.649Z,12.44
2022-09-20T09:16:10.045Z,13.07
2022-09-20T09:18:41.729Z,13.51
2022-09-20T09:21:19.516Z,13.89
2022-09-20T09:23:52.925Z,14.23
2022-09-20T09:26:23.781Z,14.06
2022-09-20T09:29:17.496Z,14.61
2022-09-20T09:31:51.186Z,16.33
2022-09-20T09:34:28.928Z,16.54
2022-09-20T09:36:58.579Z,17.87
2022-09-20T09:39:29.061Z,17.64
2022-09-20T09:42:00.266Z,16.83
2022-09-20T09:44:33.395Z,15.98
2022-09-20T09:47:02.430Z,15.33
2022-09-20T09:49:35.370Z,14.84
2022-09-20T09:52:12.425Z,14.36
2022-09-20T09:54:46.376Z,13.98
2022-09-20T09:57:33.231Z,13.71
2022-09-20T10:00:22.454Z,13.53
2022-09-20T10:03:31.723Z,13.40
2022-09-20T10:06:16.145Z,13.29
2022-09-20T10:08:59.172Z,13.22
2022-09-20T10:11:36.979Z,13.28
2022-09-20T10:14:20.029Z,13.32
2022-09-20T10:17:06.180Z,13.25
2022-09-20T10:19:50.207Z,13.09
2022-09-20T10:22:28.603Z,12.94
2022-09-20T10:25:09.978Z,12.86
2022-09-20T10:27:54.335Z,12.72
2022-09-20T10:30:26.106Z,12.60
2022-09-20T10:33:03.313Z,12.56
2022-09-20T10:36:21.686Z,12.58
2022-09-20T10:39:25.371Z,12.68
2022-09-20T10:42:21.205Z,12.83
2022-09-20T10:45:09.512Z,12.93
2022-09-20T10:47:50.992Z,12.86
2022-09-20T10:50:30.653Z,12.76
2022-09-20T10:53:12.585Z,12.75
2022-09-20T10:55:51.556Z,12.94
2022-09-20T10:58:51.564Z,13.10
2022-09-20T11:01:30.703Z,13.21
2022-09-20T11:04:24.793Z,13.38
2022-09-20T11:07:02.755Z,13.35
2022-09-20T11:09:35.147Z,13.25
2022-09-20T11:12:15.726Z,13.15
2022-09-20T11:14:49.806Z,13.11
2022-09-20T11:17:25.200Z,13.15
2022-09-20T11:20:04.709Z,13.26
2022-09-20T11:22:40.656Z,13.37
2022-09-20T11:25:20.352Z,13.52
2022-09-20T11:27:55.483Z,13.68
2022-09-20T11:30:25.052Z,13.75
2022-09-20T11:33:00.464Z,13.61
2022-09-20T11:35:34.167Z,13.47
2022-09-20T11:38:13.636Z,13.37
2022-09-20T11:40:47.662Z,13.35
2022-09-20T11:43:18.353Z,13.45
2022-09-20T11:45:53.009Z,13.45
2022-09-20T11:48:29.087Z,13.48
2022-09-20T11:51:30.887Z,13.63
2022-09-20T11:54:22.326Z,13.75
2022-09-20T11:56:53.064Z,13.67
2022-09-20T11:59:33.788Z,13.65
2022-09-20T12:02:12.734Z,13.61
2022-09-20T12:04:48.970Z,13.75
2022-09-20T12:07:22.894Z,13.94
2022-09-20T12:09:58.373Z,14.03
2022-09-20T12:12:38.960Z,14.00
2022-09-20T12:15:23.168Z,13.88
2022-09-20T12:18:29.704Z,13.78
2022-09-20T12:21:01.602Z,13.62
2022-09-20T12:24:08.797Z,13.63
2022-09-20T12:26:48.768Z,13.75
2022-09-20T12:29:54.980Z,13.92
2022-09-20T12:32:45.670Z,14.30
2022-09-20T12:35:58.713Z,14.22
2022-09-20T12:38:33.902Z,14.10
2022-09-20T12:41:15.333Z,14.03
2022-09-20T12:44:05.023Z,13.91
2022-09-20T12:46:42.497Z,13.91
2022-09-20T12:49:55.163Z,14.01
2022-09-20T12:52:52.846Z,14.21
2022-09-20T12:55:45.019Z,14.44
2022-09-20T12:58:41.012Z,14.37
2022-09-20T13:01:31.251Z,14.12
2022-09-20T13:04:55.746Z,13.93
2022-09-20T13:07:52.201Z,13.75
2022-09-20T13:10:30.900Z,13.65
2022-09-20T13:13:11.784Z,13.56
2022-09-20T13:15:41.569Z,13.48
2022-09-20T13:18:14.954Z,13.52
2022-09-20T13:20:45.621Z,13.54
2022-09-20T13:23:22.812Z,13.44
2022-09-20T13:25:56.966Z,13.32
2022-09-20T13:28:34.715Z,13.20
2022-09-20T13:31:34.632Z,13.14
2022-09-20T13:34:21.815Z,13.16
2022-09-20T13:36:56.149Z,13.17
2022-09-20T13:39:29.399Z,13.24
2022-09-20T13:42:06.378Z,13.40
2022-09-20T13:44:36.738Z,13.58
2022-09-20T13:47:22.515Z,13.72
2022-09-20T13:49:51.465Z,13.83
2022-09-20T13:52:29.148Z,13.97
2022-09-20T13:54:58.906Z,14.09
2022-09-20T13:57:30.725Z,14.11
2022-09-20T13:59:59.814Z,14.03
2022-09-20T14:02:33.176Z,14.04
2022-09-20T14:05:05.488Z,14.13
2022-09-20T14:07:36.253Z,14.26
2022-09-20T14:10:04.847Z,14.38
2022-09-20T14:12:35.232Z,14.46
2022-09-20T14:15:10.479Z,14.48
2022-09-20T14:17:39.716Z,14.40
2022-09-20T14:20:15.374Z,14.26
2022-09-20T14:22:44.991Z,14.14
2022-09-20T14:25:25.394Z,14.18
2022-09-20T14:28:16.232Z,14.23
2022-09-20T14:30:48.904Z,14.31
2022-09-20T14:33:20.994Z,14.39
2022-09-20T14:35:51.613Z,14.39
2022-09-20T14:38:27.081Z,14.42
2022-09-20T14:40:56.570Z,14.46
2022-09-20T14:43:30.761Z,14.50
2022-09-20T14:46:02.603Z,14.51
2022-09-20T14:48:35.304Z,14.48
2022-09-20T14:51:21.781Z,14.49
2022-09-20T14:53:53.266Z,14.43
2022-09-20T14:56:35.507Z,14.35
2022-09-20T14:59:25.960Z,14.25
2022-09-20T15:02:04.649Z,14.19
2022-09-20T15:04:37.281Z,14.21
2022-09-20T15:07:09.919Z,14.15
2022-09-20T15:09:38.733Z,14.08
2022-09-20T15:12:15.196Z,14.07
2022-09-20T15:14:43.943Z,14.04
2022-09-20T15:17:15.215Z,13.97
2022-09-20T15:19:44.307Z,13.88
2022-09-20T15:22:13.814Z,13.76
2022-09-20T15:24:44.462Z,13.64
2022-09-20T15:27:12.276Z,13.55
2022-09-20T15:29:41.062Z,13.47
2022-09-20T15:32:10.777Z,13.41
2022-09-20T15:34:39.540Z,13.39
2022-09-20T15:37:08.365Z,13.34
2022-09-20T15:39:37.109Z,13.26
2022-09-20T15:42:06.676Z,13.20
2022-09-20T15:44:35.874Z,13.15
2022-09-20T15:47:04.869Z,13.16
2022-09-20T15:49:34.571Z,13.17
2022-09-20T15:52:03.656Z,13.11
2022-09-20T15:54:32.469Z,13.02
2022-09-20T15:57:01.244Z,12.97
2022-09-20T15:59:32.395Z,12.92
2022-09-20T16:02:01.636Z,12.86
2022-09-20T16:04:31.342Z,12.84
2022-09-20T16:07:00.431Z,12.84
2022-09-20T16:09:31.187Z,12.83
2022-09-20T16:12:00.232Z,12.80
2022-09-20T16:14:28.790Z,12.80
2022-09-20T16:16:57.475Z,12.78
2022-09-20T16:19:26.476Z,12.78
2022-09-20T16:21:58.530Z,12.77
2022-09-20T16:24:29.333Z,12.76
2022-09-20T16:27:00.183Z,12.77
2022-09-20T16:29:29.525Z,12.80
2022-09-20T16:31:59.568Z,12.79
2022-09-20T16:34:30.725Z,12.76
2022-09-20T16:37:02.963Z,12.73
2022-09-20T16:39:32.803Z,12.71
2022-09-20T16:42:04.160Z,12.67
2022-09-20T16:44:34.556Z,12.63
2022-09-20T16:47:07.370Z,12.61
2022-09-20T16:49:36.842Z,12.59
2022-09-20T16:52:08.487Z,12.56
2022-09-20T16:54:37.620Z,12.53
2022-09-20T16:57:06.455Z,12.49
2022-09-20T16:59:34.988Z,12.45
2022-09-20T17:02:05.390Z,12.39
2022-09-20T17:04:33.288Z,12.35
2022-09-20T17:07:01.975Z,12.27
2022-09-20T17:09:30.728Z,12.20
2022-09-20T17:11:59.571Z,12.14
2022-09-20T17:14:29.082Z,12.11
2022-09-20T17:16:58.237Z,12.05
2022-09-20T17:19:26.850Z,12.00
2022-09-20T17:21:55.570Z,11.94
2022-09-20T17:24:26.277Z,11.86
2022-09-20T17:26:54.917Z,11.81
2022-09-20T17:29:23.464Z,11.76
2022-09-20T17:31:55.655Z,11.68
2022-09-20T17:34:28.873Z,11.60
2022-09-20T17:36:57.426Z,11.55
2022-09-20T17:39:27.027Z,11.50
2022-09-20T17:41:55.806Z,11.42
2022-09-20T17:44:24.549Z,11.37
2022-09-20T17:46:53.471Z,11.32
2022-09-20T17:49:27.152Z,11.25
2022-09-20T17:51:57.835Z,11.17
2022-09-20T17:54:26.586Z,11.10
2022-09-20T17:56:55.426Z,11.05
2022-09-20T17:59:24.369Z,11.02
2022-09-20T18:01:54.111Z,10.99
2022-09-20T18:04:24.541Z,10.95
2022-09-20T18:06:54.846Z,10.89
2022-09-20T18:09:25.018Z,10.86
2022-09-20T18:11:55.126Z,10.84
2022-09-20T18:14:24.302Z,10.82
2022-09-20T18:16:54.480Z,10.80
2022-09-20T18:19:23.213Z,10.78
2022-09-20T18:21:52.096Z,10.76
2022-09-20T18:24:21.271Z,10.71
2022-09-20T18:26:49.908Z,10.67
2022-09-20T18:29:18.817Z,10.67
2022-09-20T18:31:49.875Z,10.67
2022-09-20T18:34:19.963Z,10.68
2022-09-20T18:36:52.629Z,10.69
2022-09-20T18:39:22.455Z,10.72
2022-09-20T18:41:52.536Z,10.74
2022-09-20T18:44:22.155Z,10.76
2022-09-20T18:46:54.355Z,10.79
2022-09-20T18:49:24.837Z,10.79
2022-09-20T18:51:53.528Z,10.79
2022-09-20T18:54:22.944Z,10.76
2022-09-20T18:56:53.271Z,10.76
2022-09-20T18:59:25.972Z,10.74
2022-09-20T19:02:26.145Z,10.68
2022-09-20T19:05:13.363Z,10.63
2022-09-20T19:07:57.867Z,10.60
2022-09-20T19:10:38.117Z,10.58
2022-09-20T19:13:11.781Z,10.57
2022-09-20T19:16:15.727Z,10.53
2022-09-20T19:19:14.084Z,10.50
2022-09-20T19:21:55.456Z,10.46
2022-09-20T19:24:33.951Z,10.43
2022-09-20T19:27:03.089Z,10.42
2022-09-20T19:29:33.580Z,10.46
2022-09-20T19:32:02.041Z,10.45
2022-09-20T19:34:32.823Z,10.44
2022-09-20T19:37:08.282Z,10.47
2022-09-20T19:39:52.005Z,10.50
2022-09-20T19:42:31.442Z,10.51
2022-09-20T19:45:14.104Z,10.52
2022-09-20T19:47:52.445Z,10.52
2022-09-20T19:50:29.260Z,10.49
2022-09-20T19:52:58.970Z,10.48
2022-09-20T19:55:28.985Z,10.43
2022-09-20T19:57:59.490Z,10.36
2022-09-20T20:00:29.457Z,10.32
2022-09-20T20:02:59.396Z,10.28
2022-09-20T20:05:28.636Z,10.22
2022-09-20T20:08:12.579Z,10.24
2022-09-20T20:10:57.444Z,10.22
2022-09-20T20:13:52.768Z,10.25
2022-09-20T20:16:28.058Z,10.26
2022-09-20T20:19:11.489Z,10.29
2022-09-20T20:21:51.731Z,10.28
2022-09-20T20:24:30.770Z,10.24
2022-09-20T20:27:02.823Z,10.24
2022-09-20T20:29:31.941Z,10.25
2022-09-20T20:32:00.642Z,10.27
2022-09-20T20:34:32.651Z,10.24
2022-09-20T20:37:04.103Z,10.23
2022-09-20T20:39:33.457Z,10.28
2022-09-20T20:42:03.796Z,10.32
2022-09-20T20:44:36.335Z,10.35
2022-09-20T20:47:06.878Z,10.40
2022-09-20T20:49:35.806Z,10.41
2022-09-20T20:52:05.298Z,10.38
2022-09-20T20:54:34.389Z,10.36
2022-09-20T20:57:03.743Z,10.35
2022-09-20T20:59:33.679Z,10.32
2022-09-20T21:02:07.150Z,10.30
2022-09-20T21:04:39.326Z,10.29
2022-09-20T21:07:08.094Z,10.27
2022-09-20T21:09:39.080Z,10.30
2022-09-20T21:12:08.819Z,10.30
2022-09-20T21:14:37.542Z,10.32
2022-09-20T21:17:06.290Z,10.31
2022-09-20T21:19:34.899Z,10.32
2022-09-20T21:22:03.637Z,10.28
2022-09-20T21:24:32.841Z,10.28
2022-09-20T21:27:04.521Z,10.30
2022-09-20T21:29:34.054Z,10.31
2022-09-20T21:32:03.066Z,10.33
2022-09-20T21:34:31.877Z,10.33
2022-09-20T21:37:00.516Z,10.36
2022-09-20T21:39:29.247Z,10.38
2022-09-20T21:41:58.464Z,10.38
2022-09-20T21:44:27.007Z,10.35
2022-09-20T21:46:55.575Z,10.31
2022-09-20T21:49:24.209Z,10.30
2022-09-20T21:51:52.925Z,10.28
2022-09-20T21:54:22.085Z,10.28
2022-09-20T21:56:55.006Z,10.25
2022-09-20T21:59:27.318Z,10.23
2022-09-20T22:01:57.559Z,10.22
2022-09-20T22:04:28.683Z,10.22
2022-09-20T22:06:57.844Z,10.18
2022-09-20T22:09:26.455Z,10.14
2022-09-20T22:11:55.435Z,10.12
2022-09-20T22:14:24.189Z,10.06
2022-09-20T22:16:52.938Z,10.01
2022-09-20T22:19:21.478Z,9.99
2022-09-20T22:21:51.333Z,9.98
2022-09-20T22:24:20.363Z,9.99
2022-09-20T22:26:50.585Z,9.97
2022-09-20T22:29:19.819Z,9.94
2022-09-20T22:31:50.739Z,9.89
2022-09-20T22:34:21.140Z,9.87
2022-09-20T22:36:50.281Z,9.86
2022-09-20T22:39:18.956Z,9.83
2022-09-20T22:41:50.665Z,9.79
2022-09-20T22:44:19.640Z,9.77
2022-09-20T22:46:48.451Z,9.74
2022-09-20T22:49:17.526Z,9.70
2022-09-20T22:51:46.503Z,9.69
2022-09-20T22:54:15.066Z,9.69
2022-09-20T22:56:44.155Z,9.67
2022-09-20T22:59:14.424Z,9.62
2022-09-20T23:01:46.863Z,9.58
2022-09-20T23:04:18.472Z,9.56
2022-09-20T23:06:51.301Z,9.52
2022-09-20T23:09:20.380Z,9.50
2022-09-20T23:11:49.605Z,9.48
2022-09-20T23:14:20.562Z,9.47
2022-09-20T23:16:49.918Z,9.44
2022-09-20T23:19:20.062Z,9.42
2022-09-20T23:21:48.752Z,9.39
2022-09-20T23:24:17.771Z,9.38
2022-09-20T23:26:46.857Z,9.34
2022-09-20T23:29:16.814Z,9.29
2022-09-20T23:31:47.515Z,9.27
2022-09-20T23:34:18.246Z,9.25
2022-09-20T23:36:47.621Z,9.24
2022-09-20T23:39:16.601Z,9.19
2022-09-20T23:41:50.583Z,9.15
2022-09-20T23:44:20.745Z,9.14
2022-09-20T23:46:49.470Z,9.12
2022-09-20T23:49:18.508Z,9.10
2022-09-20T23:51:47.170Z,9.08
2022-09-20T23:54:15.855Z,9.06
2022-09-20T23:56:47.906Z,9.05
2022-09-20T23:59:17.291Z,9.02
